Time;durP1;ratioP1;P1;durP2;ratioP2;P2;SDS_P1;SDS_P2;PMS_P1;PMS_P2;Temp;Humidity;BMP_temperature;BMP_pressure;BME280_temperature;BME280_humidity;BME280_pressure;Samples;Min_cycle;Max_cycle;Signal;HPM_P1;HPM_P2
2022/06/02 00:00:09;;;;;;;18.90;12.80;;;;;;;;;;5013903;28;20413;-74
2022/06/02 00:03:10;;;;;;;16.92;11.90;;;;;;;;;;5013501;28;20085;-74
2022/06/02 00:06:11;;;;;;;13.38;11.98;;;;;;;;;;5010691;28;20053;-74
2022/06/02 00:09:01;;;;;;;13.18;11.75;;;;;;;;;;5013828;28;20467;-73
2022/06/02 00:11:55;;;;;;;14.18;11.88;;;;;;;;;;5014787;28;20604;-74
2022/06/02 00:14:57;;;;;;;14.95;12.02;;;;;;;;;;5008755;28;20064;-74
2022/06/02 00:17:35;;;;;;;13.40;9.65;;;;;;;;;;4997696;28;20457;-74
2022/06/02 00:20:12;;;;;;;14.55;9.80;;;;;;;;;;4998373;28;20050;-73
2022/06/02 00:22:51;;;;;;;11.65;10.07;;;;;;;;;;5013405;28;20084;-74
2022/06/02 00:25:40;;;;;;;14.13;11.13;;;;;;;;;;5014154;28;20132;-74
2022/06/02 00:28:26;;;;;;;12.07;7.68;;;;;;;;;;5011869;28;20480;-74
2022/06/02 00:31:03;;;;;;;12.85;8.27;;;;;;;;;;5013721;28;20423;-73
2022/06/02 00:34:09;;;;;;;13.13;8.18;;;;;;;;;;5011841;28;20489;-74
2022/06/02 00:37:01;;;;;;;12.65;9.80;;;;;;;;;;5010110;28;20560;-74
2022/06/02 00:39:50;;;;;;;20.17;9.63;;;;;;;;;;5014343;28;20516;-74
2022/06/02 00:42:26;;;;;;;10.30;9.25;;;;;;;;;;5012011;28;20099;-74
2022/06/02 00:44:55;;;;;;;11.73;8.85;;;;;;;;;;5002905;28;20489;-74
2022/06/02 00:47:46;;;;;;;13.52;10.13;;;;;;;;;;5013236;28;20077;-74
2022/06/02 00:50:51;;;;;;;11.80;8.43;;;;;;;;;;5013797;28;20057;-74
2022/06/02 00:53:33;;;;;;;9.18;8.23;;;;;;;;;;5013590;28;20053;-74
2022/06/02 00:59:31;;;;;;;11.20;7.80;;;;;;;;;;5013088;28;20088;-74
2022/06/02 01:02:01;;;;;;;11.85;7.53;;;;;;;;;;4997234;28;20149;-74
2022/06/02 01:04:31;;;;;;;7.63;6.80;;;;;;;;;;5013404;28;20085;-74
2022/06/02 01:07:32;;;;;;;8.88;6.60;;;;;;;;;;4996377;28;20136;-74
2022/06/02 01:10:29;;;;;;;12.18;7.28;;;;;;;;;;5010071;28;20065;-74
2022/06/02 01:13:23;;;;;;;8.40;7.10;;;;;;;;;;5008000;28;20054;-74
2022/06/02 01:16:32;;;;;;;7.90;6.60;;;;;;;;;;5005193;28;20107;-74
2022/06/02 01:19:17;;;;;;;19.50;7.80;;;;;;;;;;4956241;28;20452;-74
2022/06/02 01:22:06;;;;;;;9.70;7.05;;;;;;;;;;5013252;28;20053;-74
2022/06/02 01:25:05;;;;;;;7.88;6.43;;;;;;;;;;5013683;28;20386;-74
2022/06/02 01:27:48;;;;;;;13.48;7.30;;;;;;;;;;5002810;28;20058;-74
2022/06/02 01:30:29;;;;;;;10.05;7.10;;;;;;;;;;5013119;28;20420;-73
2022/06/02 01:33:06;;;;;;;8.57;7.03;;;;;;;;;;5013144;28;20050;-76
2022/06/02 01:35:37;;;;;;;13.77;7.85;;;;;;;;;;5012283;28;20046;-74
2022/06/02 01:38:22;;;;;;;9.45;6.78;;;;;;;;;;5012787;28;20061;-74
2022/06/02 01:41:43;;;;;;;10.88;6.47;;;;;;;;;;4996165;28;20420;-74
2022/06/02 01:44:33;;;;;;;9.35;5.57;;;;;;;;;;4952152;29;20114;-74
2022/06/02 01:47:21;;;;;;;9.10;6.20;;;;;;;;;;4980209;28;20552;-76
2022/06/02 01:49:54;;;;;;;10.43;6.20;;;;;;;;;;5011706;28;20460;-74
2022/06/02 01:52:50;;;;;;;10.98;6.47;;;;;;;;;;5013235;28;20505;-74
2022/06/02 01:55:51;;;;;;;8.77;5.70;;;;;;;;;;5012603;28;20038;-73
2022/06/02 01:58:31;;;;;;;9.48;6.55;;;;;;;;;;5005250;28;20062;-73
2022/06/02 02:01:03;;;;;;;10.30;6.43;;;;;;;;;;5012874;28;20038;-74
2022/06/02 02:03:58;;;;;;;7.00;6.30;;;;;;;;;;5013320;28;20061;-74
2022/06/02 02:07:10;;;;;;;6.82;5.90;;;;;;;;;;5003376;28;20527;-74
2022/06/02 02:10:03;;;;;;;8.45;5.95;;;;;;;;;;5012902;28;20073;-74
2022/06/02 02:13:02;;;;;;;9.20;6.00;;;;;;;;;;4995639;28;20050;-73
2022/06/02 02:15:55;;;;;;;7.55;5.43;;;;;;;;;;5012484;28;20057;-74
2022/06/02 02:19:10;;;;;;;9.07;5.85;;;;;;;;;;4995595;28;20449;-73
2022/06/02 02:21:44;;;;;;;9.00;5.22;;;;;;;;;;5010129;28;20050;-73
2022/06/02 02:24:25;;;;;;;10.60;5.38;;;;;;;;;;5016091;28;20064;-73
2022/06/02 02:27:13;;;;;;;6.03;5.30;;;;;;;;;;4996188;28;20047;-74
2022/06/02 02:30:28;;;;;;;6.10;5.00;;;;;;;;;;5003311;28;20409;-73
2022/06/02 02:33:08;;;;;;;9.45;5.10;;;;;;;;;;5016576;28;20046;-73
2022/06/02 02:35:44;;;;;;;10.25;5.65;;;;;;;;;;5015871;28;20531;-73
2022/06/02 02:38:24;;;;;;;7.30;4.80;;;;;;;;;;5005435;28;20129;-73
2022/06/02 02:40:58;;;;;;;7.85;4.93;;;;;;;;;;5015810;28;20049;-73
2022/06/02 02:43:44;;;;;;;10.32;4.97;;;;;;;;;;5015653;28;20042;-74
2022/06/02 02:46:26;;;;;;;5.30;4.80;;;;;;;;;;4999234;28;20107;-74
2022/06/02 02:49:00;;;;;;;8.00;4.90;;;;;;;;;;4998828;28;20054;-74
2022/06/02 02:51:55;;;;;;;6.22;4.43;;;;;;;;;;5015941;28;20462;-74
2022/06/02 02:54:45;;;;;;;5.90;4.72;;;;;;;;;;5004758;28;20050;-74
2022/06/02 02:57:32;;;;;;;5.63;4.05;;;;;;;;;;5015891;28;20042;-73
2022/06/02 03:00:09;;;;;;;8.27;5.07;;;;;;;;;;5012163;28;20436;-73
2022/06/02 03:03:03;;;;;;;6.55;4.70;;;;;;;;;;5014880;28;20050;-73
2022/06/02 03:06:02;;;;;;;5.82;5.15;;;;;;;;;;5015429;28;20046;-73
2022/06/02 03:08:37;;;;;;;6.13;4.57;;;;;;;;;;4999006;28;20066;-73
2022/06/02 03:11:26;;;;;;;8.18;4.97;;;;;;;;;;5015852;28;20117;-73
2022/06/02 03:14:00;;;;;;;5.47;4.60;;;;;;;;;;5015212;28;20070;-73
2022/06/02 03:16:32;;;;;;;5.10;4.60;;;;;;;;;;5015664;28;20053;-76
2022/06/02 03:19:38;;;;;;;5.28;4.65;;;;;;;;;;5014971;28;20050;-75
2022/06/02 03:22:36;;;;;;;8.70;5.72;;;;;;;;;;5007296;28;20053;-75
2022/06/02 03:25:38;;;;;;;11.50;4.72;;;;;;;;;;5015279;28;20565;-75
2022/06/02 03:28:31;;;;;;;4.90;4.47;;;;;;;;;;5014932;28;20081;-75
2022/06/02 03:31:05;;;;;;;9.30;4.60;;;;;;;;;;5015185;28;20054;-75
2022/06/02 03:34:02;;;;;;;9.68;5.13;;;;;;;;;;5014682;28;20061;-75
2022/06/02 03:36:56;;;;;;;6.40;5.22;;;;;;;;;;5014371;28;20073;-75
2022/06/02 03:39:38;;;;;;;6.65;4.80;;;;;;;;;;5012532;28;20053;-74
2022/06/02 03:42:54;;;;;;;22.48;5.85;;;;;;;;;;5014951;28;20057;-75
2022/06/02 03:45:30;;;;;;;7.20;5.00;;;;;;;;;;4954563;29;20083;-74
2022/06/02 03:48:04;;;;;;;6.43;4.85;;;;;;;;;;5012360;28;20054;-75
2022/06/02 03:50:39;;;;;;;6.95;4.70;;;;;;;;;;5014589;28;20057;-75
2022/06/02 03:53:16;;;;;;;9.98;5.30;;;;;;;;;;5014727;28;20432;-75
2022/06/02 03:56:10;;;;;;;6.57;4.95;;;;;;;;;;5014675;28;20058;-75
2022/06/02 03:58:38;;;;;;;6.43;5.13;;;;;;;;;;5014539;28;20050;-74
2022/06/02 04:01:11;;;;;;;11.00;5.28;;;;;;;;;;5005166;28;20045;-75
2022/06/02 04:04:09;;;;;;;8.18;5.00;;;;;;;;;;5013249;28;20054;-75
2022/06/02 04:07:03;;;;;;;6.70;4.80;;;;;;;;;;5007155;28;20057;-75
2022/06/02 04:09:49;;;;;;;5.18;4.50;;;;;;;;;;5008959;28;20075;-74
2022/06/02 04:15:31;;;;;;;10.05;4.65;;;;;;;;;;5014000;28;20497;-75
2022/06/02 04:18:10;;;;;;;4.90;4.43;;;;;;;;;;5014101;28;20499;-75
2022/06/02 04:20:53;;;;;;;8.98;5.05;;;;;;;;;;5000096;28;20056;-75
2022/06/02 04:23:26;;;;;;;8.75;4.80;;;;;;;;;;5014090;28;20045;-75
2022/06/02 04:26:17;;;;;;;6.15;4.63;;;;;;;;;;5014125;28;20100;-75
2022/06/02 04:29:23;;;;;;;9.55;5.65;;;;;;;;;;5013852;28;20063;-75
2022/06/02 04:32:10;;;;;;;8.98;4.68;;;;;;;;;;5013916;28;20472;-75
2022/06/02 04:35:36;;;;;;;10.20;5.05;;;;;;;;;;5014400;28;20409;-75
2022/06/02 04:38:24;;;;;;;;;;;;;;;;;;4907265;28;20245;-75
2022/06/02 04:41:15;;;;;;;8.68;5.35;;;;;;;;;;5011723;28;19925;-74
2022/06/02 04:44:42;;;;;;;8.27;5.97;;;;;;;;;;5013895;28;20054;-76
2022/06/02 04:47:40;;;;;;;8.77;5.05;;;;;;;;;;5001500;28;20085;-74
2022/06/02 04:50:39;;;;;;;10.52;5.97;;;;;;;;;;5013298;28;20108;-74
2022/06/02 04:53:47;;;;;;;4.82;4.32;;;;;;;;;;5010420;28;20060;-74
2022/06/02 04:57:01;;;;;;;7.43;5.18;;;;;;;;;;4978088;28;20100;-75
2022/06/02 04:59:49;;;;;;;14.18;7.60;;;;;;;;;;5009733;28;20068;-75
2022/06/02 05:02:47;;;;;;;8.82;7.88;;;;;;;;;;5012441;28;20057;-74
2022/06/02 05:05:35;;;;;;;11.00;8.40;;;;;;;;;;5011805;28;20456;-75
2022/06/02 05:09:01;;;;;;;10.25;8.98;;;;;;;;;;5013421;28;20108;-74
2022/06/02 05:11:52;;;;;;;8.65;7.55;;;;;;;;;;5009751;28;20053;-75
2022/06/02 05:14:26;;;;;;;9.38;7.53;;;;;;;;;;5011172;28;20049;-75
2022/06/02 05:17:16;;;;;;;8.52;7.47;;;;;;;;;;4998764;28;20076;-75
2022/06/02 05:20:18;;;;;;;14.25;8.45;;;;;;;;;;4987771;28;20481;-75
2022/06/02 05:23:16;;;;;;;16.13;9.25;;;;;;;;;;5012926;28;20088;-75
2022/06/02 05:26:23;;;;;;;12.30;8.77;;;;;;;;;;5013027;28;20061;-75
2022/06/02 05:28:51;;;;;;;;;;;;;;;;;;5013566;28;20060;-75
2022/06/02 05:31:26;;;;;;;12.40;9.00;;;;;;;;;;5013124;28;19922;-75
2022/06/02 05:33:58;;;;;;;9.90;8.88;;;;;;;;;;5012782;28;20050;-74
2022/06/02 05:36:58;;;;;;;10.25;8.73;;;;;;;;;;5013471;28;20128;-74
2022/06/02 05:39:30;;;;;;;12.80;9.63;;;;;;;;;;5008696;28;20056;-75
2022/06/02 05:42:35;;;;;;;10.20;9.20;;;;;;;;;;4995911;28;20049;-75
2022/06/02 05:45:24;;;;;;;14.35;9.40;;;;;;;;;;5012742;28;20050;-74
2022/06/02 05:48:21;;;;;;;12.70;9.38;;;;;;;;;;5012108;28;20061;-75
2022/06/02 05:51:29;;;;;;;16.38;10.40;;;;;;;;;;5004410;28;20061;-74
2022/06/02 05:54:28;;;;;;;11.07;9.88;;;;;;;;;;5012650;28;20509;-74
2022/06/02 05:57:26;;;;;;;13.60;9.52;;;;;;;;;;5015574;28;20463;-74
2022/06/02 06:00:25;;;;;;;14.32;9.98;;;;;;;;;;5016760;28;20076;-75
2022/06/02 06:03:08;;;;;;;11.73;9.18;;;;;;;;;;5012797;28;20073;-74
2022/06/02 06:05:38;;;;;;;;;;;;;;;;;;5013691;28;20069;-74
2022/06/02 06:08:16;;;;;;;15.23;7.45;;;;;;;;;;5016486;28;19925;-74
2022/06/02 06:11:03;;;;;;;10.88;9.13;;;;;;;;;;5016457;28;20048;-74
2022/06/02 06:14:01;;;;;;;15.40;10.10;;;;;;;;;;5015129;28;20072;-74
2022/06/02 06:16:55;;;;;;;20.35;9.45;;;;;;;;;;5001248;28;20053;-74
2022/06/02 06:19:41;;;;;;;11.35;10.07;;;;;;;;;;4997793;28;20104;-74
2022/06/02 06:22:48;;;;;;;7.45;6.75;;;;;;;;;;5014988;28;20484;-74
2022/06/02 06:25:32;;;;;;;22.65;8.15;;;;;;;;;;5014161;28;20065;-74
2022/06/02 06:28:16;;;;;;;15.40;9.43;;;;;;;;;;5013910;28;20409;-75
2022/06/02 06:30:59;;;;;;;16.02;6.95;;;;;;;;;;5006653;28;20054;-76
2022/06/02 06:33:44;;;;;;;6.10;4.03;;;;;;;;;;5021349;28;20085;-77
2022/06/02 06:36:51;;;;;;;6.97;4.18;;;;;;;;;;5023011;28;20303;-76
2022/06/02 06:39:29;;;;;;;6.35;4.82;;;;;;;;;;5019841;28;20441;-77
2022/06/02 06:42:35;;;;;;;7.45;5.03;;;;;;;;;;5019048;28;20057;-77
2022/06/02 06:45:33;;;;;;;10.07;6.20;;;;;;;;;;5021650;28;20500;-76
2022/06/02 06:48:41;;;;;;;18.20;7.50;;;;;;;;;;5022603;28;20054;-77
2022/06/02 06:52:01;;;;;;;8.25;5.30;;;;;;;;;;5000295;28;20058;-76
2022/06/02 06:54:52;;;;;;;12.27;6.60;;;;;;;;;;4962938;29;20048;-75
2022/06/02 06:57:38;;;;;;;11.15;5.25;;;;;;;;;;5018325;28;20049;-76
2022/06/02 07:00:38;;;;;;;6.40;5.57;;;;;;;;;;5010237;28;20065;-76
2022/06/02 07:03:20;;;;;;;6.90;6.20;;;;;;;;;;5015640;28;20084;-71
2022/06/02 07:06:15;;;;;;;8.25;5.80;;;;;;;;;;5022763;28;20061;-74
2022/06/02 07:09:29;;;;;;;6.50;5.03;;;;;;;;;;5006356;28;20519;-77
2022/06/02 07:15:12;;;;;;;;;;;;;;;;;;5022998;28;20116;-75
2022/06/02 07:17:58;;;;;;;6.20;4.80;;;;;;;;;;5020612;28;19928;-79
2022/06/02 07:21:07;;;;;;;8.38;4.63;;;;;;;;;;5023293;28;20046;-76
2022/06/02 07:24:06;;;;;;;9.27;4.88;;;;;;;;;;5022162;28;22148;-75
2022/06/02 07:26:54;;;;;;;8.13;5.50;;;;;;;;;;5020025;28;20092;-74
2022/06/02 07:29:45;;;;;;;7.05;4.68;;;;;;;;;;5017091;28;20523;-75
2022/06/02 07:32:48;;;;;;;6.63;5.60;;;;;;;;;;5020519;28;20053;-74
2022/06/02 07:35:27;;;;;;;;;;;;;;;;;;4924889;29;20044;-73
2022/06/02 07:37:57;;;;;;;10.02;5.43;;;;;;;;;;4946684;28;19925;-73
2022/06/02 07:40:28;;;;;;;6.82;4.30;;;;;;;;;;5018632;28;20110;-72
2022/06/02 07:43:06;;;;;;;10.13;4.50;;;;;;;;;;5019635;28;20061;-73
2022/06/02 07:46:06;;;;;;;7.03;4.53;;;;;;;;;;5019772;28;20065;-74
2022/06/02 07:48:38;;;;;;;9.85;3.78;;;;;;;;;;5021445;28;20060;-75
2022/06/02 07:51:13;;;;;;;6.85;3.90;;;;;;;;;;5020162;28;20050;-73
2022/06/02 07:54:08;;;;;;;9.45;4.22;;;;;;;;;;5017822;28;20057;-73
2022/06/02 07:56:54;;;;;;;5.45;3.67;;;;;;;;;;5021028;28;20405;-73
2022/06/02 08:00:04;;;;;;;4.35;3.80;;;;;;;;;;5017442;28;20056;-77
2022/06/02 08:03:04;;;;;;;6.43;3.63;;;;;;;;;;5014071;28;20052;-70
2022/06/02 08:05:52;;;;;;;4.80;3.40;;;;;;;;;;5001820;28;20568;-74
2022/06/02 08:08:33;;;;;;;8.75;3.55;;;;;;;;;;5016859;28;20060;-74
2022/06/02 08:11:33;;;;;;;5.82;3.40;;;;;;;;;;5015161;28;20088;-74
2022/06/02 08:14:16;;;;;;;4.80;3.60;;;;;;;;;;5001575;28;20060;-74
2022/06/02 08:17:20;;;;;;;4.72;3.35;;;;;;;;;;5018900;28;20045;-75
2022/06/02 08:20:00;;;;;;;5.05;3.95;;;;;;;;;;4999365;28;20509;-74
2022/06/02 08:22:33;;;;;;;6.85;3.50;;;;;;;;;;5015785;28;20117;-72
2022/06/02 08:25:21;;;;;;;7.47;3.92;;;;;;;;;;5011476;28;20053;-75
2022/06/02 08:28:10;;;;;;;5.47;3.83;;;;;;;;;;5012998;28;20046;-73
2022/06/02 08:31:16;;;;;;;7.95;4.15;;;;;;;;;;5008697;28;20496;-77
2022/06/02 08:34:36;;;;;;;7.63;3.40;;;;;;;;;;4959054;28;20223;-77
2022/06/02 08:37:25;;;;;;;12.38;3.80;;;;;;;;;;4954273;28;20046;-77
2022/06/02 08:40:37;;;;;;;7.70;4.10;;;;;;;;;;5000853;28;20493;-77
2022/06/02 08:43:15;;;;;;;12.95;3.47;;;;;;;;;;5011894;28;20497;-77
2022/06/02 08:46:30;;;;;;;6.88;3.72;;;;;;;;;;5013216;28;20133;-77
2022/06/02 08:49:36;;;;;;;7.38;3.53;;;;;;;;;;4983775;28;20054;-77
2022/06/02 08:52:22;;;;;;;9.75;3.45;;;;;;;;;;5006112;28;20058;-77
2022/06/02 08:55:34;;;;;;;5.90;2.78;;;;;;;;;;5013835;28;20073;-77
2022/06/02 08:58:42;;;;;;;5.07;3.40;;;;;;;;;;5011877;28;20081;-77
2022/06/02 09:01:36;;;;;;;9.98;3.80;;;;;;;;;;5007951;28;20046;-77
2022/06/02 09:04:16;;;;;;;7.70;3.33;;;;;;;;;;5010353;28;20103;-77
2022/06/02 09:07:16;;;;;;;11.63;3.55;;;;;;;;;;5010186;28;20477;-78
2022/06/02 09:10:27;;;;;;;11.85;4.53;;;;;;;;;;5002860;28;20133;-77
2022/06/02 09:13:30;;;;;;;9.07;2.95;;;;;;;;;;5011596;28;20096;-78
2022/06/02 09:16:20;;;;;;;76.07;10.50;;;;;;;;;;5013111;28;20129;-77
2022/06/02 09:19:02;;;;;;;13.57;5.45;;;;;;;;;;5012814;28;20574;-78
2022/06/02 09:21:43;;;;;;;12.63;3.95;;;;;;;;;;5013340;28;20048;-78
2022/06/02 09:24:14;;;;;;;62.70;11.40;;;;;;;;;;5013364;28;20058;-78
2022/06/02 09:26:48;;;;;;;15.57;4.53;;;;;;;;;;5013076;28;20054;-79
2022/06/02 09:29:20;;;;;;;13.30;4.20;;;;;;;;;;5013264;28;20061;-78
2022/06/02 09:32:46;;;;;;;3.88;2.90;;;;;;;;;;5012657;28;20054;-78
2022/06/02 09:35:22;;;;;;;5.55;3.40;;;;;;;;;;4895768;29;20056;-78
2022/06/02 09:37:54;;;;;;;5.82;3.70;;;;;;;;;;4895728;29;20048;-79
2022/06/02 09:40:37;;;;;;;20.77;4.85;;;;;;;;;;4981381;28;20058;-79
2022/06/02 09:43:24;;;;;;;10.38;3.30;;;;;;;;;;4996347;28;20457;-79
2022/06/02 09:46:34;;;;;;;7.45;3.08;;;;;;;;;;5013191;28;20065;-79
2022/06/02 09:49:38;;;;;;;8.02;3.30;;;;;;;;;;5012984;28;20042;-79
2022/06/02 09:52:25;;;;;;;6.72;3.03;;;;;;;;;;5013046;28;20060;-79
2022/06/02 09:55:18;;;;;;;7.35;3.38;;;;;;;;;;5003419;28;20054;-79
2022/06/02 09:57:56;;;;;;;4.13;3.05;;;;;;;;;;5010363;28;20119;-80
2022/06/02 10:00:39;;;;;;;14.88;4.55;;;;;;;;;;5013325;28;20132;-80
2022/06/02 10:03:29;;;;;;;10.10;2.88;;;;;;;;;;5012992;28;20057;-79
2022/06/02 10:06:04;;;;;;;6.32;3.20;;;;;;;;;;5004304;28;20054;-79
2022/06/02 10:08:42;;;;;;;4.72;2.80;;;;;;;;;;5012606;28;20136;-80
2022/06/02 10:11:30;;;;;;;8.63;3.80;;;;;;;;;;4996647;28;20046;-80
2022/06/02 10:14:16;;;;;;;9.23;3.25;;;;;;;;;;4986648;28;20053;-81
2022/06/02 10:16:56;;;;;;;6.75;3.58;;;;;;;;;;5012640;28;20052;-81
2022/06/02 10:19:47;;;;;;;10.50;4.30;;;;;;;;;;5012971;28;20396;-81
2022/06/02 10:22:58;;;;;;;6.43;3.13;;;;;;;;;;5011662;28;20080;-80
2022/06/02 10:25:29;;;;;;;7.00;3.35;;;;;;;;;;5010573;28;20086;-81
2022/06/02 10:28:24;;;;;;;9.10;3.83;;;;;;;;;;5012949;28;20069;-82
2022/06/02 10:31:33;;;;;;;5.47;3.40;;;;;;;;;;5012242;28;20576;-81
2022/06/02 10:34:27;;;;;;;6.22;3.33;;;;;;;;;;4908946;29;20057;-81
2022/06/02 10:37:02;;;;;;;;;;;;;;;;;;4915024;29;20111;-82
2022/06/02 10:40:18;;;;;;;6.25;3.05;;;;;;;;;;4973319;28;19968;-82
2022/06/02 10:43:03;;;;;;;3.95;3.00;;;;;;;;;;5014364;28;20128;-82
2022/06/02 10:45:53;;;;;;;10.18;3.60;;;;;;;;;;4998893;28;20057;-81
2022/06/02 10:48:40;;;;;;;4.10;3.15;;;;;;;;;;5010044;28;20136;-82
2022/06/02 10:51:43;;;;;;;15.85;4.03;;;;;;;;;;5006236;28;20134;-82
2022/06/02 10:54:21;;;;;;;25.08;6.80;;;;;;;;;;5016130;28;20061;-82
2022/06/02 10:57:38;;;;;;;15.43;4.47;;;;;;;;;;4998954;28;20101;-81
2022/06/02 11:01:05;;;;;;;7.97;3.92;;;;;;;;;;5013365;28;20402;-82
2022/06/02 11:04:01;;;;;;;9.60;3.60;;;;;;;;;;4943699;29;20481;-82
2022/06/02 11:06:37;;;;;;;8.07;3.30;;;;;;;;;;4955345;29;20078;-82
2022/06/02 11:09:48;;;;;;;8.93;3.10;;;;;;;;;;5006563;28;20096;-79
2022/06/02 11:12:32;;;;;;;10.80;2.75;;;;;;;;;;5015793;28;20116;-79
2022/06/02 11:15:22;;;;;;;7.40;4.03;;;;;;;;;;5015358;28;20054;-80
2022/06/02 11:18:06;;;;;;;8.85;3.05;;;;;;;;;;5014424;28;20416;-79
2022/06/02 11:20:58;;;;;;;17.02;3.83;;;;;;;;;;5013900;28;20556;-78
2022/06/02 11:23:48;;;;;;;10.95;3.40;;;;;;;;;;5014183;28;20056;-77
2022/06/02 11:26:35;;;;;;;16.58;3.85;;;;;;;;;;5014384;28;20045;-78
2022/06/02 11:29:47;;;;;;;5.55;2.75;;;;;;;;;;5013180;28;20065;-77
2022/06/02 11:32:21;;;;;;;9.43;3.30;;;;;;;;;;5008249;28;20057;-79
2022/06/02 11:35:11;;;;;;;5.40;3.30;;;;;;;;;;5012216;28;20069;-80
2022/06/02 11:38:00;;;;;;;7.97;5.85;;;;;;;;;;5012271;28;20049;-78
2022/06/02 11:41:05;;;;;;;10.48;6.25;;;;;;;;;;5013847;28;20520;-75
2022/06/02 11:44:13;;;;;;;4.18;2.53;;;;;;;;;;5013649;28;20512;-78
2022/06/02 11:47:06;;;;;;;7.97;2.72;;;;;;;;;;5014435;28;20053;-78
2022/06/02 11:50:10;;;;;;;4.78;2.50;;;;;;;;;;5011644;28;20107;-74
2022/06/02 11:52:43;;;;;;;9.15;3.67;;;;;;;;;;5014706;28;20069;-78
2022/06/02 11:55:21;;;;;;;10.17;3.53;;;;;;;;;;5014455;28;20050;-76
2022/06/02 11:57:57;;;;;;;7.68;3.10;;;;;;;;;;5014754;28;20301;-76
2022/06/02 12:00:26;;;;;;;5.65;2.38;;;;;;;;;;5014187;28;20108;-76
2022/06/02 12:03:36;;;;;;;4.78;2.28;;;;;;;;;;5012201;28;20049;-76
2022/06/02 12:06:33;;;;;;;6.90;3.53;;;;;;;;;;5011944;28;20928;-74
2022/06/02 12:09:25;;;;;;;3.17;2.15;;;;;;;;;;5010857;28;20130;-75
2022/06/02 12:12:41;;;;;;;7.27;2.63;;;;;;;;;;5013423;28;20072;-75
2022/06/02 12:15:26;;;;;;;6.57;2.67;;;;;;;;;;5008316;28;20471;-77
2022/06/02 12:18:19;;;;;;;6.97;3.20;;;;;;;;;;5013691;28;20046;-77
2022/06/02 12:21:08;;;;;;;5.18;2.70;;;;;;;;;;4994888;28;20057;-76
2022/06/02 12:23:59;;;;;;;3.97;2.63;;;;;;;;;;5013549;28;20057;-75
2022/06/02 12:26:28;;;;;;;9.02;2.67;;;;;;;;;;5011728;28;20050;-75
2022/06/02 12:29:06;;;;;;;7.10;2.30;;;;;;;;;;5012787;28;20042;-72
2022/06/02 12:31:47;;;;;;;5.40;2.35;;;;;;;;;;5011412;28;20493;-75
2022/06/02 12:34:25;;;;;;;7.45;3.35;;;;;;;;;;5011931;28;20056;-75
2022/06/02 12:37:42;;;;;;;4.30;2.20;;;;;;;;;;5012654;28;20042;-75
2022/06/02 12:40:19;;;;;;;3.08;2.00;;;;;;;;;;5005517;28;20501;-76
2022/06/02 12:43:05;;;;;;;4.63;2.72;;;;;;;;;;4994749;28;20099;-75
2022/06/02 12:45:43;;;;;;;7.85;2.78;;;;;;;;;;5013811;28;20038;-75
2022/06/02 12:48:37;;;;;;;13.00;3.35;;;;;;;;;;5013585;28;20077;-75
2022/06/02 12:51:45;;;;;;;4.82;2.45;;;;;;;;;;5011509;28;20056;-75
2022/06/02 12:54:38;;;;;;;4.75;2.38;;;;;;;;;;5012818;28;20042;-75
2022/06/02 12:57:18;;;;;;;7.75;2.38;;;;;;;;;;5013036;28;20050;-74
2022/06/02 13:00:09;;;;;;;8.77;2.53;;;;;;;;;;5013545;28;20038;-74
2022/06/02 13:02:41;;;;;;;8.90;3.40;;;;;;;;;;4960679;28;20049;-76
2022/06/02 13:05:30;;;;;;;4.97;2.80;;;;;;;;;;5012120;28;20084;-74
2022/06/02 13:08:19;;;;;;;5.20;3.00;;;;;;;;;;5011825;28;20054;-73
2022/06/02 13:11:07;;;;;;;9.35;3.38;;;;;;;;;;5010755;28;20041;-74
2022/06/02 13:14:14;;;;;;;6.40;3.20;;;;;;;;;;5012753;28;20136;-73
2022/06/02 13:16:50;;;;;;;4.97;2.75;;;;;;;;;;4982708;28;20041;-73
2022/06/02 13:19:46;;;;;;;5.70;2.70;;;;;;;;;;5012740;28;20378;-74
2022/06/02 13:22:40;;;;;;;5.38;2.90;;;;;;;;;;5010905;28;20124;-73
2022/06/02 13:25:36;;;;;;;8.88;2.95;;;;;;;;;;5010681;28;20480;-74
2022/06/02 13:28:28;;;;;;;7.97;3.25;;;;;;;;;;5010839;28;20064;-74
2022/06/02 13:31:26;;;;;;;8.07;3.30;;;;;;;;;;5009728;28;20060;-74
2022/06/02 13:34:30;;;;;;;6.03;3.40;;;;;;;;;;4978788;28;20453;-73
2022/06/02 13:37:27;;;;;;;6.40;2.90;;;;;;;;;;5011625;28;20053;-74
2022/06/02 13:40:18;;;;;;;6.50;2.75;;;;;;;;;;5011213;28;20064;-75
2022/06/02 13:43:07;;;;;;;8.70;2.97;;;;;;;;;;5011091;28;20081;-73
2022/06/02 13:46:13;;;;;;;9.48;3.67;;;;;;;;;;5009563;28;20057;-72
2022/06/02 13:48:49;;;;;;;12.05;3.40;;;;;;;;;;5010583;28;20049;-70
2022/06/02 13:51:49;;;;;;;9.52;3.45;;;;;;;;;;5012952;28;20134;-75
2022/06/02 13:57:42;;;;;;;6.50;3.00;;;;;;;;;;5010433;28;20583;-70
2022/06/02 14:00:20;;;;;;;9.85;3.03;;;;;;;;;;5012245;28;20046;-70
2022/06/02 14:03:02;;;;;;;8.43;3.05;;;;;;;;;;5009481;28;20405;-72
2022/06/02 14:06:26;;;;;;;12.33;3.50;;;;;;;;;;5012025;28;20053;-71
2022/06/02 14:09:27;;;;;;;4.57;3.55;;;;;;;;;;5010130;28;20042;-72
2022/06/02 14:12:37;;;;;;;16.13;3.38;;;;;;;;;;4997917;28;20046;-70
2022/06/02 14:18:32;;;;;;;4.45;3.33;;;;;;;;;;9980624;27;81282;-69
2022/06/02 14:23:45;;;;;;;6.80;3.63;;;;;;;;;;10002631;28;20105;-69
2022/06/02 14:29:07;;;;;;;18.17;4.78;;;;;;;;;;10016051;28;20061;-69
2022/06/02 14:34:43;;;;;;;8.00;4.18;;;;;;;;;;10001771;28;20096;-65
2022/06/02 14:39:53;;;;;;;8.50;3.97;;;;;;;;;;10001243;28;20137;-64
2022/06/02 14:45:08;;;;;;;6.70;3.92;;;;;;;;;;10005700;28;20054;-64
2022/06/02 14:50:05;;;;;;;6.10;3.90;;;;;;;;;;10013554;28;20383;-64
2022/06/02 14:55:16;;;;;;;8.95;3.92;;;;;;;;;;10020516;28;20096;-64
2022/06/02 15:00:24;;;;;;;8.60;3.50;;;;;;;;;;10015981;28;20563;-64
2022/06/02 15:05:18;;;;;;;9.43;3.83;;;;;;;;;;10004819;28;20132;-64
2022/06/02 15:10:37;;;;;;;12.40;4.07;;;;;;;;;;10009927;28;20045;-64
2022/06/02 15:15:43;;;;;;;7.30;4.05;;;;;;;;;;10017616;28;20054;-64
2022/06/02 15:20:45;;;;;;;10.32;4.32;;;;;;;;;;10008017;28;20048;-64
2022/06/02 15:26:17;;;;;;;19.55;5.28;;;;;;;;;;9996768;28;20524;-65
2022/06/02 15:31:20;;;;;;;9.93;5.00;;;;;;;;;;9993066;28;20054;-64
2022/06/02 15:36:41;;;;;;;11.93;5.32;;;;;;;;;;9993129;28;20077;-65
2022/06/02 15:42:12;;;;;;;7.88;5.32;;;;;;;;;;9991199;28;20121;-64
2022/06/02 15:47:28;;;;;;;7.50;5.68;;;;;;;;;;9993630;28;20046;-64
2022/06/02 15:53:01;;;;;;;6.95;5.30;;;;;;;;;;9989832;28;20070;-64
2022/06/02 15:58:26;;;;;;;20.45;6.40;;;;;;;;;;9992529;28;20050;-65
2022/06/02 16:03:42;;;;;;;25.95;6.93;;;;;;;;;;9993136;28;20452;-64
2022/06/02 16:08:45;;;;;;;;;;;;;;;;;;9974246;28;20100;-65
2022/06/02 16:13:58;;;;;;;24.33;5.35;;;;;;;;;;9988867;28;20020;-65
2022/06/02 16:19:15;;;;;;;10.93;6.47;;;;;;;;;;9987582;28;20553;-65
2022/06/02 16:24:21;;;;;;;12.98;6.07;;;;;;;;;;9984433;28;20053;-65
2022/06/02 16:29:14;;;;;;;19.02;5.72;;;;;;;;;;9991577;28;20058;-67
2022/06/02 16:34:12;;;;;;;11.25;5.32;;;;;;;;;;9980360;28;20047;-68
2022/06/02 16:39:40;;;;;;;13.10;6.10;;;;;;;;;;9981205;28;20417;-65
2022/06/02 16:44:55;;;;;;;8.60;5.70;;;;;;;;;;9988429;28;20050;-68
2022/06/02 16:50:26;;;;;;;9.87;5.70;;;;;;;;;;9974443;28;20148;-67
2022/06/02 16:55:41;;;;;;;6.80;4.70;;;;;;;;;;9968766;28;20054;-67
2022/06/02 17:00:38;;;;;;;9.13;5.60;;;;;;;;;;9989763;28;20494;-67
2022/06/02 17:06:14;;;;;;;11.63;4.80;;;;;;;;;;9986543;28;20046;-66
2022/06/02 17:11:15;;;;;;;5.85;4.97;;;;;;;;;;9981712;28;20097;-72
2022/06/02 17:16:23;;;;;;;13.23;6.03;;;;;;;;;;9982993;28;20066;-70
2022/06/02 17:21:47;;;;;;;12.38;5.65;;;;;;;;;;9986020;28;20054;-71
2022/06/02 17:27:14;;;;;;;9.85;5.78;;;;;;;;;;9987031;28;20046;-69
2022/06/02 17:32:39;;;;;;;7.85;6.72;;;;;;;;;;9987218;28;20049;-70
2022/06/02 17:37:53;;;;;;;11.52;6.53;;;;;;;;;;9982917;28;20062;-70
2022/06/02 17:43:15;;;;;;;16.02;6.43;;;;;;;;;;9981948;28;20057;-70
2022/06/02 17:48:51;;;;;;;12.38;6.85;;;;;;;;;;9952556;28;20056;-70
2022/06/02 17:53:57;;;;;;;14.85;6.65;;;;;;;;;;9976347;28;20050;-70
2022/06/02 17:59:32;;;;;;;7.88;6.72;;;;;;;;;;9987630;28;20056;-70
2022/06/02 18:04:34;;;;;;;8.98;7.07;;;;;;;;;;9975118;28;20057;-70
2022/06/02 18:09:47;;;;;;;9.25;6.78;;;;;;;;;;9951687;28;20053;-68
2022/06/02 18:15:03;;;;;;;14.73;6.70;;;;;;;;;;9969948;28;20145;-69
2022/06/02 18:20:21;;;;;;;9.98;6.70;;;;;;;;;;9984921;28;20551;-66
2022/06/02 18:25:35;;;;;;;8.25;6.97;;;;;;;;;;9981657;28;20058;-66
2022/06/02 18:30:45;;;;;;;7.47;6.68;;;;;;;;;;9985717;28;20140;-65
2022/06/02 18:36:00;;;;;;;9.10;7.63;;;;;;;;;;9984738;28;20058;-66
2022/06/02 18:41:14;;;;;;;9.85;6.72;;;;;;;;;;9983325;28;20057;-66
2022/06/02 18:46:33;;;;;;;12.02;6.63;;;;;;;;;;9989958;28;20078;-66
2022/06/02 18:52:06;;;;;;;12.25;7.97;;;;;;;;;;9982215;28;20050;-67
2022/06/02 18:57:24;;;;;;;10.23;7.20;;;;;;;;;;9983952;28;20136;-66
2022/06/02 19:02:55;;;;;;;8.35;7.03;;;;;;;;;;9973619;28;20046;-65
2022/06/02 19:13:52;;;;;;;18.50;7.90;;;;;;;;;;9993685;28;20049;-63
2022/06/02 19:19:33;;;;;;;15.77;7.72;;;;;;;;;;9990728;28;20049;-63
2022/06/02 19:25:10;;;;;;;12.80;7.93;;;;;;;;;;9967140;28;20078;-63
2022/06/02 19:30:34;;;;;;;9.85;7.63;;;;;;;;;;9956761;28;20691;-63
2022/06/02 19:35:37;;;;;;;13.05;7.70;;;;;;;;;;9986466;28;20128;-63
2022/06/02 19:41:06;;;;;;;9.05;7.38;;;;;;;;;;9989485;28;20485;-63
2022/06/02 19:46:35;;;;;;;17.05;7.80;;;;;;;;;;9990794;28;20048;-64